sensor_id;sensor_type;location;lat;lon;timestamp;temperature;humidity
11474;DHT22;5793;52.238;13.438;2023-02-02T00:01:30;3.90;99.90
11474;DHT22;5793;52.238;13.438;2023-02-02T00:03:58;3.80;99.90
11474;DHT22;5793;52.238;13.438;2023-02-02T00:06:27;3.90;99.90
11474;DHT22;5793;52.238;13.438;2023-02-02T00:08:56;3.90;99.90
11474;DHT22;5793;52.238;13.438;2023-02-02T00:11:25;4.00;99.90
11474;DHT22;5793;52.238;13.438;2023-02-02T00:13:54;4.00;99.90
11474;DHT22;5793;52.238;13.438;2023-02-02T00:16:50;4.10;99.90
11474;DHT22;5793;52.238;13.438;2023-02-02T00:19:20;4.10;99.90
11474;DHT22;5793;52.238;13.438;2023-02-02T00:21:48;4.10;99.90
11474;DHT22;5793;52.238;13.438;2023-02-02T00:24:16;4.30;99.90
11474;DHT22;5793;52.238;13.438;2023-02-02T00:26:46;4.40;99.90
11474;DHT22;5793;52.238;13.438;2023-02-02T00:29:22;4.40;99.90
11474;DHT22;5793;52.238;13.438;2023-02-02T00:31:50;4.40;99.90
11474;DHT22;5793;52.238;13.438;2023-02-02T00:34:19;4.30;99.90
11474;DHT22;5793;52.238;13.438;2023-02-02T00:36:48;4.30;99.90
11474;DHT22;5793;52.238;13.438;2023-02-02T00:39:18;4.40;99.90
11474;DHT22;5793;52.238;13.438;2023-02-02T00:41:46;4.60;99.90
11474;DHT22;5793;52.238;13.438;2023-02-02T00:44:15;4.70;99.90
11474;DHT22;5793;52.238;13.438;2023-02-02T00:47:01;4.70;99.90
11474;DHT22;5793;52.238;13.438;2023-02-02T00:49:29;4.80;99.90
11474;DHT22;5793;52.238;13.438;2023-02-02T00:51:57;4.90;99.90
11474;DHT22;5793;52.238;13.438;2023-02-02T00:54:25;4.80;99.90
11474;DHT22;5793;52.238;13.438;2023-02-02T00:56:53;4.90;99.90
11474;DHT22;5793;52.238;13.438;2023-02-02T00:59:22;4.90;99.90
11474;DHT22;5793;52.238;13.438;2023-02-02T01:01:50;4.90;99.90
11474;DHT22;5793;52.238;13.438;2023-02-02T01:04:18;4.90;99.90
11474;DHT22;5793;52.238;13.438;2023-02-02T01:06:46;4.90;99.90
11474;DHT22;5793;52.238;13.438;2023-02-02T01:09:14;4.90;99.90
11474;DHT22;5793;52.238;13.438;2023-02-02T01:11:41;5.00;99.90
11474;DHT22;5793;52.238;13.438;2023-02-02T01:14:09;4.90;99.90
11474;DHT22;5793;52.238;13.438;2023-02-02T01:16:38;5.00;99.90
11474;DHT22;5793;52.238;13.438;2023-02-02T01:19:06;5.00;99.90
11474;DHT22;5793;52.238;13.438;2023-02-02T01:21:34;5.00;99.90
11474;DHT22;5793;52.238;13.438;2023-02-02T01:24:02;5.00;99.90
11474;DHT22;5793;52.238;13.438;2023-02-02T01:26:30;5.10;99.90
11474;DHT22;5793;52.238;13.438;2023-02-02T01:28:58;5.00;99.90
11474;DHT22;5793;52.238;13.438;2023-02-02T01:31:25;5.00;99.90
11474;DHT22;5793;52.238;13.438;2023-02-02T01:33:54;5.00;99.90
11474;DHT22;5793;52.238;13.438;2023-02-02T01:36:23;5.10;99.90
11474;DHT22;5793;52.238;13.438;2023-02-02T01:38:51;5.10;99.90
11474;DHT22;5793;52.238;13.438;2023-02-02T01:41:21;5.20;99.90
11474;DHT22;5793;52.238;13.438;2023-02-02T01:43:55;5.20;99.90
11474;DHT22;5793;52.238;13.438;2023-02-02T01:46:25;5.20;99.90
11474;DHT22;5793;52.238;13.438;2023-02-02T01:49:00;5.20;99.90
11474;DHT22;5793;52.238;13.438;2023-02-02T01:51:34;5.30;99.90
11474;DHT22;5793;52.238;13.438;2023-02-02T01:54:06;5.20;99.90
11474;DHT22;5793;52.238;13.438;2023-02-02T01:56:38;5.20;99.90
11474;DHT22;5793;52.238;13.438;2023-02-02T01:59:07;5.20;99.90
11474;DHT22;5793;52.238;13.438;2023-02-02T02:01:35;5.20;99.90
11474;DHT22;5793;52.238;13.438;2023-02-02T02:04:05;5.10;99.90
11474;DHT22;5793;52.238;13.438;2023-02-02T02:06:33;5.10;99.90
11474;DHT22;5793;52.238;13.438;2023-02-02T02:09:03;5.00;99.90
11474;DHT22;5793;52.238;13.438;2023-02-02T02:11:32;5.00;99.90
11474;DHT22;5793;52.238;13.438;2023-02-02T02:14:03;5.00;99.90
11474;DHT22;5793;52.238;13.438;2023-02-02T02:17:02;5.00;99.90
11474;DHT22;5793;52.238;13.438;2023-02-02T02:19:56;5.00;99.90
11474;DHT22;5793;52.238;13.438;2023-02-02T02:26:21;5.00;99.90
11474;DHT22;5793;52.238;13.438;2023-02-02T02:29:15;5.00;99.90
11474;DHT22;5793;52.238;13.438;2023-02-02T02:31:59;5.00;99.90
11474;DHT22;5793;52.238;13.438;2023-02-02T02:34:39;5.00;99.90
11474;DHT22;5793;52.238;13.438;2023-02-02T02:37:14;5.10;99.90
11474;DHT22;5793;52.238;13.438;2023-02-02T02:39:49;5.10;99.90
11474;DHT22;5793;52.238;13.438;2023-02-02T02:42:23;5.20;99.90
11474;DHT22;5793;52.238;13.438;2023-02-02T02:44:52;5.20;99.90
11474;DHT22;5793;52.238;13.438;2023-02-02T02:47:23;5.20;99.90
11474;DHT22;5793;52.238;13.438;2023-02-02T02:49:51;5.20;99.90
11474;DHT22;5793;52.238;13.438;2023-02-02T02:52:22;5.20;99.90
11474;DHT22;5793;52.238;13.438;2023-02-02T02:54:51;5.20;99.90
11474;DHT22;5793;52.238;13.438;2023-02-02T02:57:40;5.30;99.90
11474;DHT22;5793;52.238;13.438;2023-02-02T03:00:22;5.30;99.90
11474;DHT22;5793;52.238;13.438;2023-02-02T03:02:56;5.20;99.90
11474;DHT22;5793;52.238;13.438;2023-02-02T03:05:32;5.10;99.90
11474;DHT22;5793;52.238;13.438;2023-02-02T03:08:08;5.00;99.90
11474;DHT22;5793;52.238;13.438;2023-02-02T03:10:38;5.00;99.90
11474;DHT22;5793;52.238;13.438;2023-02-02T03:13:09;5.00;99.90
11474;DHT22;5793;52.238;13.438;2023-02-02T03:15:39;5.00;99.90
11474;DHT22;5793;52.238;13.438;2023-02-02T03:18:08;4.90;99.90
11474;DHT22;5793;52.238;13.438;2023-02-02T03:20:36;4.90;99.90
11474;DHT22;5793;52.238;13.438;2023-02-02T03:23:08;4.80;99.90
11474;DHT22;5793;52.238;13.438;2023-02-02T03:25:36;4.90;99.90
11474;DHT22;5793;52.238;13.438;2023-02-02T03:28:04;4.90;99.90
11474;DHT22;5793;52.238;13.438;2023-02-02T03:30:33;4.80;99.90
11474;DHT22;5793;52.238;13.438;2023-02-02T03:33:02;4.80;99.90
11474;DHT22;5793;52.238;13.438;2023-02-02T03:35:31;4.70;99.90
11474;DHT22;5793;52.238;13.438;2023-02-02T03:37:59;4.70;99.90
11474;DHT22;5793;52.238;13.438;2023-02-02T03:40:27;4.70;99.90
11474;DHT22;5793;52.238;13.438;2023-02-02T03:42:55;4.70;99.90
11474;DHT22;5793;52.238;13.438;2023-02-02T03:45:25;4.70;99.90
11474;DHT22;5793;52.238;13.438;2023-02-02T03:47:53;4.70;99.90
11474;DHT22;5793;52.238;13.438;2023-02-02T03:50:21;4.70;99.90
11474;DHT22;5793;52.238;13.438;2023-02-02T03:52:52;4.70;99.90
11474;DHT22;5793;52.238;13.438;2023-02-02T03:55:20;4.70;99.90
11474;DHT22;5793;52.238;13.438;2023-02-02T03:57:48;4.70;99.90
11474;DHT22;5793;52.238;13.438;2023-02-02T04:00:17;4.70;99.90
11474;DHT22;5793;52.238;13.438;2023-02-02T04:02:45;4.70;99.90
11474;DHT22;5793;52.238;13.438;2023-02-02T04:05:13;4.70;99.90
11474;DHT22;5793;52.238;13.438;2023-02-02T04:07:41;4.60;99.90
11474;DHT22;5793;52.238;13.438;2023-02-02T04:10:11;4.60;99.90
11474;DHT22;5793;52.238;13.438;2023-02-02T04:12:38;4.60;99.90
11474;DHT22;5793;52.238;13.438;2023-02-02T04:15:07;4.60;99.90
11474;DHT22;5793;52.238;13.438;2023-02-02T04:17:35;4.60;99.90
11474;DHT22;5793;52.238;13.438;2023-02-02T04:20:05;4.60;99.90
11474;DHT22;5793;52.238;13.438;2023-02-02T04:22:37;4.60;99.90
11474;DHT22;5793;52.238;13.438;2023-02-02T04:25:08;4.60;99.90
11474;DHT22;5793;52.238;13.438;2023-02-02T04:27:37;4.70;99.90
11474;DHT22;5793;52.238;13.438;2023-02-02T04:30:05;4.70;99.90
11474;DHT22;5793;52.238;13.438;2023-02-02T04:32:37;4.70;99.90
11474;DHT22;5793;52.238;13.438;2023-02-02T04:35:06;4.70;99.90
11474;DHT22;5793;52.238;13.438;2023-02-02T04:37:34;4.70;99.90
11474;DHT22;5793;52.238;13.438;2023-02-02T04:40:02;4.80;99.90
11474;DHT22;5793;52.238;13.438;2023-02-02T04:42:30;4.80;99.90
11474;DHT22;5793;52.238;13.438;2023-02-02T04:45:01;4.80;99.90
11474;DHT22;5793;52.238;13.438;2023-02-02T04:47:29;4.70;99.90
11474;DHT22;5793;52.238;13.438;2023-02-02T04:49:57;4.70;99.90
11474;DHT22;5793;52.238;13.438;2023-02-02T04:52:24;4.80;99.90
11474;DHT22;5793;52.238;13.438;2023-02-02T04:54:52;4.70;99.90
11474;DHT22;5793;52.238;13.438;2023-02-02T04:57:20;4.70;99.90
11474;DHT22;5793;52.238;13.438;2023-02-02T04:59:48;4.70;99.90
11474;DHT22;5793;52.238;13.438;2023-02-02T05:02:17;4.80;99.90
11474;DHT22;5793;52.238;13.438;2023-02-02T05:04:45;4.80;99.90
11474;DHT22;5793;52.238;13.438;2023-02-02T05:07:16;4.80;99.90
11474;DHT22;5793;52.238;13.438;2023-02-02T05:09:44;4.80;99.90
11474;DHT22;5793;52.238;13.438;2023-02-02T05:12:12;4.80;99.90
11474;DHT22;5793;52.238;13.438;2023-02-02T05:14:39;4.80;99.90
11474;DHT22;5793;52.238;13.438;2023-02-02T05:17:07;4.80;99.90
11474;DHT22;5793;52.238;13.438;2023-02-02T05:19:36;4.80;99.90
11474;DHT22;5793;52.238;13.438;2023-02-02T05:22:04;4.80;99.90
11474;DHT22;5793;52.238;13.438;2023-02-02T05:24:32;4.80;99.90
11474;DHT22;5793;52.238;13.438;2023-02-02T05:27:00;4.80;99.90
11474;DHT22;5793;52.238;13.438;2023-02-02T05:29:28;4.80;99.90
11474;DHT22;5793;52.238;13.438;2023-02-02T05:31:56;4.80;99.90
11474;DHT22;5793;52.238;13.438;2023-02-02T05:34:24;4.90;99.90
11474;DHT22;5793;52.238;13.438;2023-02-02T05:36:54;4.80;99.90
11474;DHT22;5793;52.238;13.438;2023-02-02T05:39:22;4.80;99.90
11474;DHT22;5793;52.238;13.438;2023-02-02T05:41:49;4.70;99.90
11474;DHT22;5793;52.238;13.438;2023-02-02T05:44:17;4.80;99.90
11474;DHT22;5793;52.238;13.438;2023-02-02T05:46:45;4.80;99.90
11474;DHT22;5793;52.238;13.438;2023-02-02T05:49:13;4.80;99.90
11474;DHT22;5793;52.238;13.438;2023-02-02T05:51:43;4.90;99.90
11474;DHT22;5793;52.238;13.438;2023-02-02T05:54:13;4.90;99.90
11474;DHT22;5793;52.238;13.438;2023-02-02T05:56:45;4.90;99.90
11474;DHT22;5793;52.238;13.438;2023-02-02T05:59:12;4.90;99.90
11474;DHT22;5793;52.238;13.438;2023-02-02T06:01:40;4.90;99.90
11474;DHT22;5793;52.238;13.438;2023-02-02T06:04:09;4.90;99.90
11474;DHT22;5793;52.238;13.438;2023-02-02T06:06:36;4.90;99.90
11474;DHT22;5793;52.238;13.438;2023-02-02T06:09:04;5.00;99.90
11474;DHT22;5793;52.238;13.438;2023-02-02T06:11:34;5.00;99.90
11474;DHT22;5793;52.238;13.438;2023-02-02T06:14:02;4.90;99.90
11474;DHT22;5793;52.238;13.438;2023-02-02T06:16:30;4.90;99.90
11474;DHT22;5793;52.238;13.438;2023-02-02T06:18:57;4.80;99.90
11474;DHT22;5793;52.238;13.438;2023-02-02T06:21:25;4.80;99.90
11474;DHT22;5793;52.238;13.438;2023-02-02T06:23:57;4.80;99.90
11474;DHT22;5793;52.238;13.438;2023-02-02T06:26:25;4.80;99.90
11474;DHT22;5793;52.238;13.438;2023-02-02T06:28:54;4.80;99.90
11474;DHT22;5793;52.238;13.438;2023-02-02T06:31:22;4.70;99.90
11474;DHT22;5793;52.238;13.438;2023-02-02T06:34:05;4.70;99.90
11474;DHT22;5793;52.238;13.438;2023-02-02T06:36:33;4.70;99.90
11474;DHT22;5793;52.238;13.438;2023-02-02T06:39:01;4.70;99.90
11474;DHT22;5793;52.238;13.438;2023-02-02T06:41:30;4.70;99.90
11474;DHT22;5793;52.238;13.438;2023-02-02T06:43:59;4.80;99.90
11474;DHT22;5793;52.238;13.438;2023-02-02T06:46:27;4.80;99.90
11474;DHT22;5793;52.238;13.438;2023-02-02T06:48:55;4.80;99.90
11474;DHT22;5793;52.238;13.438;2023-02-02T06:51:23;4.80;99.90
11474;DHT22;5793;52.238;13.438;2023-02-02T06:53:51;4.70;99.90
11474;DHT22;5793;52.238;13.438;2023-02-02T06:56:19;4.70;99.90
11474;DHT22;5793;52.238;13.438;2023-02-02T06:58:48;4.70;99.90
11474;DHT22;5793;52.238;13.438;2023-02-02T07:01:17;4.60;99.90
11474;DHT22;5793;52.238;13.438;2023-02-02T07:03:47;4.50;99.90
11474;DHT22;5793;52.238;13.438;2023-02-02T07:06:18;4.50;99.90
11474;DHT22;5793;52.238;13.438;2023-02-02T07:08:47;4.50;99.90
11474;DHT22;5793;52.238;13.438;2023-02-02T07:11:28;4.50;99.90
11474;DHT22;5793;52.238;13.438;2023-02-02T07:13:57;4.60;99.90
11474;DHT22;5793;52.238;13.438;2023-02-02T07:16:26;4.50;99.90
11474;DHT22;5793;52.238;13.438;2023-02-02T07:18:53;4.50;99.90
11474;DHT22;5793;52.238;13.438;2023-02-02T07:21:24;4.50;99.90
11474;DHT22;5793;52.238;13.438;2023-02-02T07:23:53;4.40;99.90
11474;DHT22;5793;52.238;13.438;2023-02-02T07:26:21;4.40;99.90
11474;DHT22;5793;52.238;13.438;2023-02-02T07:28:50;4.40;99.90
11474;DHT22;5793;52.238;13.438;2023-02-02T07:31:20;4.50;99.90
11474;DHT22;5793;52.238;13.438;2023-02-02T07:33:50;4.60;99.90
11474;DHT22;5793;52.238;13.438;2023-02-02T07:36:20;4.70;99.90
11474;DHT22;5793;52.238;13.438;2023-02-02T07:38:50;4.90;99.90
11474;DHT22;5793;52.238;13.438;2023-02-02T07:41:19;5.00;99.90
11474;DHT22;5793;52.238;13.438;2023-02-02T07:43:48;5.00;99.90
11474;DHT22;5793;52.238;13.438;2023-02-02T07:46:17;5.10;99.90
11474;DHT22;5793;52.238;13.438;2023-02-02T07:48:45;5.10;99.90
11474;DHT22;5793;52.238;13.438;2023-02-02T07:51:16;5.10;99.90
11474;DHT22;5793;52.238;13.438;2023-02-02T07:53:45;5.00;99.90
11474;DHT22;5793;52.238;13.438;2023-02-02T07:56:15;5.10;99.90
11474;DHT22;5793;52.238;13.438;2023-02-02T07:58:43;5.10;99.90
11474;DHT22;5793;52.238;13.438;2023-02-02T08:01:13;5.20;99.90
11474;DHT22;5793;52.238;13.438;2023-02-02T08:03:42;5.20;99.90
11474;DHT22;5793;52.238;13.438;2023-02-02T08:06:12;5.30;99.90
11474;DHT22;5793;52.238;13.438;2023-02-02T08:08:41;5.30;99.90
11474;DHT22;5793;52.238;13.438;2023-02-02T08:11:11;5.30;99.90
11474;DHT22;5793;52.238;13.438;2023-02-02T08:13:40;5.30;99.90
11474;DHT22;5793;52.238;13.438;2023-02-02T08:16:10;5.10;99.90
11474;DHT22;5793;52.238;13.438;2023-02-02T08:18:38;5.10;99.90
11474;DHT22;5793;52.238;13.438;2023-02-02T08:21:07;5.00;99.90
11474;DHT22;5793;52.238;13.438;2023-02-02T08:23:36;5.00;99.90
11474;DHT22;5793;52.238;13.438;2023-02-02T08:26:08;5.10;99.90
11474;DHT22;5793;52.238;13.438;2023-02-02T08:28:36;5.20;99.90
11474;DHT22;5793;52.238;13.438;2023-02-02T08:31:06;5.30;99.90
11474;DHT22;5793;52.238;13.438;2023-02-02T08:33:35;5.30;99.90
11474;DHT22;5793;52.238;13.438;2023-02-02T08:36:08;5.30;99.90
11474;DHT22;5793;52.238;13.438;2023-02-02T08:38:37;5.40;99.90
11474;DHT22;5793;52.238;13.438;2023-02-02T08:41:08;5.30;99.90
11474;DHT22;5793;52.238;13.438;2023-02-02T08:43:36;5.50;99.90
11474;DHT22;5793;52.238;13.438;2023-02-02T08:46:04;5.50;99.90
11474;DHT22;5793;52.238;13.438;2023-02-02T08:48:33;5.50;99.90
11474;DHT22;5793;52.238;13.438;2023-02-02T08:51:03;5.50;99.90
11474;DHT22;5793;52.238;13.438;2023-02-02T08:53:31;5.20;99.90
11474;DHT22;5793;52.238;13.438;2023-02-02T08:56:00;5.10;99.90
11474;DHT22;5793;52.238;13.438;2023-02-02T08:58:31;5.00;99.90
11474;DHT22;5793;52.238;13.438;2023-02-02T09:01:03;5.10;99.90
11474;DHT22;5793;52.238;13.438;2023-02-02T09:03:32;5.20;99.90
11474;DHT22;5793;52.238;13.438;2023-02-02T09:06:03;5.10;99.90
11474;DHT22;5793;52.238;13.438;2023-02-02T09:08:31;5.10;99.90
11474;DHT22;5793;52.238;13.438;2023-02-02T09:11:04;5.00;99.90
11474;DHT22;5793;52.238;13.438;2023-02-02T09:13:34;5.00;99.90
11474;DHT22;5793;52.238;13.438;2023-02-02T09:16:04;5.00;99.90
11474;DHT22;5793;52.238;13.438;2023-02-02T09:18:32;5.10;99.90
11474;DHT22;5793;52.238;13.438;2023-02-02T09:21:01;5.30;99.90
11474;DHT22;5793;52.238;13.438;2023-02-02T09:23:31;5.40;99.90
11474;DHT22;5793;52.238;13.438;2023-02-02T09:26:08;5.50;99.90
11474;DHT22;5793;52.238;13.438;2023-02-02T09:28:37;5.60;99.90
11474;DHT22;5793;52.238;13.438;2023-02-02T09:31:06;5.70;99.90
11474;DHT22;5793;52.238;13.438;2023-02-02T09:33:34;5.80;99.90
11474;DHT22;5793;52.238;13.438;2023-02-02T09:36:03;5.90;99.90
11474;DHT22;5793;52.238;13.438;2023-02-02T09:38:46;6.00;99.90
11474;DHT22;5793;52.238;13.438;2023-02-02T09:41:47;6.30;99.90
11474;DHT22;5793;52.238;13.438;2023-02-02T09:44:33;6.80;99.90
11474;DHT22;5793;52.238;13.438;2023-02-02T09:47:11;7.00;99.90
11474;DHT22;5793;52.238;13.438;2023-02-02T09:49:50;6.90;99.90
11474;DHT22;5793;52.238;13.438;2023-02-02T09:52:23;6.90;99.90
11474;DHT22;5793;52.238;13.438;2023-02-02T09:54:56;6.80;99.90
11474;DHT22;5793;52.238;13.438;2023-02-02T09:57:30;6.60;99.90
11474;DHT22;5793;52.238;13.438;2023-02-02T10:00:01;6.60;99.90
11474;DHT22;5793;52.238;13.438;2023-02-02T10:02:36;6.60;99.90
11474;DHT22;5793;52.238;13.438;2023-02-02T10:05:12;6.50;99.90
11474;DHT22;5793;52.238;13.438;2023-02-02T10:07:42;6.30;99.90
11474;DHT22;5793;52.238;13.438;2023-02-02T10:10:16;6.30;99.90
11474;DHT22;5793;52.238;13.438;2023-02-02T10:12:51;6.30;99.90
11474;DHT22;5793;52.238;13.438;2023-02-02T10:15:28;6.40;99.90
11474;DHT22;5793;52.238;13.438;2023-02-02T10:18:03;6.50;99.90
11474;DHT22;5793;52.238;13.438;2023-02-02T10:20:40;6.60;99.90
11474;DHT22;5793;52.238;13.438;2023-02-02T10:23:18;6.80;99.90
11474;DHT22;5793;52.238;13.438;2023-02-02T10:25:54;6.80;99.90
11474;DHT22;5793;52.238;13.438;2023-02-02T10:28:38;6.80;99.90
11474;DHT22;5793;52.238;13.438;2023-02-02T10:31:16;6.60;99.90
11474;DHT22;5793;52.238;13.438;2023-02-02T10:33:52;6.90;99.90
11474;DHT22;5793;52.238;13.438;2023-02-02T10:36:27;7.70;99.90
11474;DHT22;5793;52.238;13.438;2023-02-02T10:39:00;7.20;99.90
11474;DHT22;5793;52.238;13.438;2023-02-02T10:41:36;6.80;99.90
11474;DHT22;5793;52.238;13.438;2023-02-02T10:44:21;6.70;99.90
11474;DHT22;5793;52.238;13.438;2023-02-02T10:46:54;6.80;99.90
11474;DHT22;5793;52.238;13.438;2023-02-02T10:49:26;6.70;99.90
11474;DHT22;5793;52.238;13.438;2023-02-02T10:52:01;6.80;99.90
11474;DHT22;5793;52.238;13.438;2023-02-02T10:54:48;7.20;99.90
11474;DHT22;5793;52.238;13.438;2023-02-02T10:57:32;7.10;99.90
11474;DHT22;5793;52.238;13.438;2023-02-02T11:00:05;6.90;99.90
11474;DHT22;5793;52.238;13.438;2023-02-02T11:02:38;6.80;99.90
11474;DHT22;5793;52.238;13.438;2023-02-02T11:05:12;6.60;99.90
11474;DHT22;5793;52.238;13.438;2023-02-02T11:07:58;6.60;99.90
11474;DHT22;5793;52.238;13.438;2023-02-02T11:10:27;6.70;99.90
11474;DHT22;5793;52.238;13.438;2023-02-02T11:12:55;6.80;99.90
11474;DHT22;5793;52.238;13.438;2023-02-02T11:15:28;8.00;99.90
11474;DHT22;5793;52.238;13.438;2023-02-02T11:18:12;9.50;99.90
11474;DHT22;5793;52.238;13.438;2023-02-02T11:20:41;10.00;99.90
11474;DHT22;5793;52.238;13.438;2023-02-02T11:23:27;9.70;99.90
11474;DHT22;5793;52.238;13.438;2023-02-02T11:25:59;8.60;99.90
11474;DHT22;5793;52.238;13.438;2023-02-02T11:28:31;8.30;99.90
11474;DHT22;5793;52.238;13.438;2023-02-02T11:31:00;8.80;99.90
11474;DHT22;5793;52.238;13.438;2023-02-02T11:33:32;9.70;99.90
11474;DHT22;5793;52.238;13.438;2023-02-02T11:36:02;8.90;99.90
11474;DHT22;5793;52.238;13.438;2023-02-02T11:38:31;8.40;99.90
11474;DHT22;5793;52.238;13.438;2023-02-02T11:41:00;7.80;99.90
11474;DHT22;5793;52.238;13.438;2023-02-02T11:43:32;7.50;99.90
11474;DHT22;5793;52.238;13.438;2023-02-02T11:46:04;7.10;99.90
11474;DHT22;5793;52.238;13.438;2023-02-02T11:48:37;6.90;99.90
11474;DHT22;5793;52.238;13.438;2023-02-02T11:51:06;6.80;99.90
11474;DHT22;5793;52.238;13.438;2023-02-02T11:53:38;6.60;99.90
11474;DHT22;5793;52.238;13.438;2023-02-02T11:56:17;6.50;99.90
11474;DHT22;5793;52.238;13.438;2023-02-02T11:58:46;6.50;99.90
11474;DHT22;5793;52.238;13.438;2023-02-02T12:01:25;6.60;99.90
11474;DHT22;5793;52.238;13.438;2023-02-02T12:03:56;6.90;99.90
11474;DHT22;5793;52.238;13.438;2023-02-02T12:06:26;7.00;99.90
11474;DHT22;5793;52.238;13.438;2023-02-02T12:09:03;7.00;99.90
11474;DHT22;5793;52.238;13.438;2023-02-02T12:11:42;6.90;99.90
11474;DHT22;5793;52.238;13.438;2023-02-02T12:14:24;6.80;99.90
11474;DHT22;5793;52.238;13.438;2023-02-02T12:17:05;6.60;99.90
11474;DHT22;5793;52.238;13.438;2023-02-02T12:19:47;6.50;99.90
11474;DHT22;5793;52.238;13.438;2023-02-02T12:22:28;6.40;99.90
11474;DHT22;5793;52.238;13.438;2023-02-02T12:25:02;6.50;99.90
11474;DHT22;5793;52.238;13.438;2023-02-02T12:27:41;6.60;99.90
11474;DHT22;5793;52.238;13.438;2023-02-02T12:30:27;6.70;99.90
11474;DHT22;5793;52.238;13.438;2023-02-02T12:33:11;6.70;99.90
11474;DHT22;5793;52.238;13.438;2023-02-02T12:35:55;6.80;99.90
11474;DHT22;5793;52.238;13.438;2023-02-02T12:38:38;7.00;99.90
11474;DHT22;5793;52.238;13.438;2023-02-02T12:41:23;7.40;99.90
11474;DHT22;5793;52.238;13.438;2023-02-02T12:43:58;7.70;99.90
11474;DHT22;5793;52.238;13.438;2023-02-02T12:46:37;7.90;99.90
11474;DHT22;5793;52.238;13.438;2023-02-02T12:49:20;7.80;99.90
11474;DHT22;5793;52.238;13.438;2023-02-02T12:52:09;7.60;99.90
11474;DHT22;5793;52.238;13.438;2023-02-02T12:54:58;7.20;99.90
11474;DHT22;5793;52.238;13.438;2023-02-02T12:57:36;6.70;99.90
11474;DHT22;5793;52.238;13.438;2023-02-02T13:00:37;5.80;99.90
11474;DHT22;5793;52.238;13.438;2023-02-02T13:06:15;4.50;99.90
11474;DHT22;5793;52.238;13.438;2023-02-02T13:08:54;4.40;99.90
11474;DHT22;5793;52.238;13.438;2023-02-02T13:11:33;4.40;99.90
11474;DHT22;5793;52.238;13.438;2023-02-02T13:14:08;4.40;99.90
11474;DHT22;5793;52.238;13.438;2023-02-02T13:16:40;4.40;99.90
11474;DHT22;5793;52.238;13.438;2023-02-02T13:19:13;4.40;99.90
11474;DHT22;5793;52.238;13.438;2023-02-02T13:21:44;4.40;99.90
11474;DHT22;5793;52.238;13.438;2023-02-02T13:24:19;4.50;99.90
11474;DHT22;5793;52.238;13.438;2023-02-02T13:26:50;4.60;99.90
11474;DHT22;5793;52.238;13.438;2023-02-02T13:29:30;4.70;99.90
11474;DHT22;5793;52.238;13.438;2023-02-02T13:32:16;4.70;99.90
11474;DHT22;5793;52.238;13.438;2023-02-02T13:34:49;4.80;99.90
11474;DHT22;5793;52.238;13.438;2023-02-02T13:37:23;4.80;99.90
11474;DHT22;5793;52.238;13.438;2023-02-02T13:39:59;4.90;99.90
11474;DHT22;5793;52.238;13.438;2023-02-02T13:42:35;5.00;99.90
11474;DHT22;5793;52.238;13.438;2023-02-02T13:45:21;4.90;99.90
11474;DHT22;5793;52.238;13.438;2023-02-02T13:47:56;4.90;99.90
11474;DHT22;5793;52.238;13.438;2023-02-02T13:50:28;4.90;99.90
11474;DHT22;5793;52.238;13.438;2023-02-02T13:53:23;5.10;99.90
11474;DHT22;5793;52.238;13.438;2023-02-02T13:56:19;5.20;99.90
11474;DHT22;5793;52.238;13.438;2023-02-02T13:59:08;5.30;99.90
11474;DHT22;5793;52.238;13.438;2023-02-02T14:01:41;5.30;99.90
11474;DHT22;5793;52.238;13.438;2023-02-02T14:04:20;5.30;99.90
11474;DHT22;5793;52.238;13.438;2023-02-02T14:06:57;5.30;99.90
11474;DHT22;5793;52.238;13.438;2023-02-02T14:09:27;5.30;99.90
11474;DHT22;5793;52.238;13.438;2023-02-02T14:12:00;5.20;99.90
11474;DHT22;5793;52.238;13.438;2023-02-02T14:14:29;5.20;99.90
11474;DHT22;5793;52.238;13.438;2023-02-02T14:17:03;5.20;99.90
11474;DHT22;5793;52.238;13.438;2023-02-02T14:19:52;5.20;99.90
11474;DHT22;5793;52.238;13.438;2023-02-02T14:22:41;5.20;99.90
11474;DHT22;5793;52.238;13.438;2023-02-02T14:25:47;5.30;99.90
11474;DHT22;5793;52.238;13.438;2023-02-02T14:28:40;5.30;99.90
11474;DHT22;5793;52.238;13.438;2023-02-02T14:31:50;5.20;99.90
11474;DHT22;5793;52.238;13.438;2023-02-02T14:34:30;5.20;99.90
11474;DHT22;5793;52.238;13.438;2023-02-02T14:37:44;5.10;99.90
11474;DHT22;5793;52.238;13.438;2023-02-02T14:40:33;5.10;99.90
11474;DHT22;5793;52.238;13.438;2023-02-02T14:43:11;5.10;99.90
11474;DHT22;5793;52.238;13.438;2023-02-02T14:46:22;5.00;99.90
11474;DHT22;5793;52.238;13.438;2023-02-02T14:49:14;4.90;99.90
11474;DHT22;5793;52.238;13.438;2023-02-02T14:51:46;4.90;99.90
11474;DHT22;5793;52.238;13.438;2023-02-02T14:54:20;4.80;99.90
11474;DHT22;5793;52.238;13.438;2023-02-02T14:56:52;4.70;99.90
11474;DHT22;5793;52.238;13.438;2023-02-02T14:59:23;4.60;99.90
11474;DHT22;5793;52.238;13.438;2023-02-02T15:02:01;4.70;99.90
11474;DHT22;5793;52.238;13.438;2023-02-02T15:04:33;4.60;99.90
11474;DHT22;5793;52.238;13.438;2023-02-02T15:10:08;4.50;99.90
11474;DHT22;5793;52.238;13.438;2023-02-02T15:12:39;4.50;99.90
11474;DHT22;5793;52.238;13.438;2023-02-02T15:15:15;4.50;99.90
11474;DHT22;5793;52.238;13.438;2023-02-02T15:17:59;4.60;99.90
11474;DHT22;5793;52.238;13.438;2023-02-02T15:20:32;4.60;99.90
11474;DHT22;5793;52.238;13.438;2023-02-02T15:23:04;4.50;99.90
11474;DHT22;5793;52.238;13.438;2023-02-02T15:25:36;4.50;99.90
11474;DHT22;5793;52.238;13.438;2023-02-02T15:28:16;4.50;99.90
11474;DHT22;5793;52.238;13.438;2023-02-02T15:30:48;4.50;99.90
11474;DHT22;5793;52.238;13.438;2023-02-02T15:33:25;4.50;99.90
11474;DHT22;5793;52.238;13.438;2023-02-02T15:35:56;4.40;99.90
11474;DHT22;5793;52.238;13.438;2023-02-02T15:38:32;4.30;99.90
11474;DHT22;5793;52.238;13.438;2023-02-02T15:41:04;4.20;99.90
11474;DHT22;5793;52.238;13.438;2023-02-02T15:43:33;4.10;99.90
11474;DHT22;5793;52.238;13.438;2023-02-02T15:46:03;3.90;99.90
11474;DHT22;5793;52.238;13.438;2023-02-02T15:48:34;3.90;99.90
11474;DHT22;5793;52.238;13.438;2023-02-02T15:51:03;3.70;99.90
11474;DHT22;5793;52.238;13.438;2023-02-02T15:53:44;3.70;99.90
11474;DHT22;5793;52.238;13.438;2023-02-02T15:56:18;3.60;99.90
11474;DHT22;5793;52.238;13.438;2023-02-02T15:58:47;3.50;99.90
11474;DHT22;5793;52.238;13.438;2023-02-02T16:01:17;3.50;99.90
11474;DHT22;5793;52.238;13.438;2023-02-02T16:03:50;3.50;99.90
11474;DHT22;5793;52.238;13.438;2023-02-02T16:06:19;3.50;99.90
11474;DHT22;5793;52.238;13.438;2023-02-02T16:08:48;3.40;99.90
11474;DHT22;5793;52.238;13.438;2023-02-02T16:11:19;3.30;99.90
11474;DHT22;5793;52.238;13.438;2023-02-02T16:13:57;3.20;99.90
11474;DHT22;5793;52.238;13.438;2023-02-02T16:16:28;3.10;99.90
11474;DHT22;5793;52.238;13.438;2023-02-02T16:19:11;3.00;99.90
11474;DHT22;5793;52.238;13.438;2023-02-02T16:21:44;2.90;99.90
11474;DHT22;5793;52.238;13.438;2023-02-02T16:24:17;2.90;99.90
11474;DHT22;5793;52.238;13.438;2023-02-02T16:26:47;2.80;99.90
11474;DHT22;5793;52.238;13.438;2023-02-02T16:29:15;2.70;99.90
11474;DHT22;5793;52.238;13.438;2023-02-02T16:31:59;2.60;99.90